Time;durP1;ratioP1;P1;durP2;ratioP2;P2;SDS_P1;SDS_P2;PMS_P1;PMS_P2;Temp;Humidity;BMP_temperature;BMP_pressure;BME280_temperature;BME280_humidity;BME280_pressure;Samples;Min_cycle;Max_cycle;Signal;HPM_P1;HPM_P2
2021/12/17 00:00:07;;;;;;;0.10;0.10;;;;;;;;;;4853955;29;20059;-80
2021/12/17 00:05:20;;;;;;;0.40;0.40;;;;;;;;;;4852330;29;20113;-79
2021/12/17 00:07:45;;;;;;;;;;;;;;;;;;4852340;29;20033;-79
2021/12/17 00:10:14;;;;;;;0.20;0.20;;;;;;;;;;4851960;29;19931;-79
2021/12/17 00:12:40;;;;;;;0.30;0.30;;;;;;;;;;4848156;29;20578;-80
2021/12/17 00:15:07;;;;;;;0.00;0.00;;;;;;;;;;4853350;29;20116;-80
2021/12/17 00:17:34;;;;;;;;;;;;;;;;;;4852122;29;20565;-80
2021/12/17 00:49:55;;;;;;;0.10;0.10;;;;;;;;;;4855799;29;20045;-77
2021/12/17 00:52:22;;;;;;;0.10;0.10;;;;;;;;;;4835798;29;20120;-76
2021/12/17 00:54:48;;;;;;;0.10;0.10;;;;;;;;;;4850813;29;20048;-76
2021/12/17 00:57:19;;;;;;;0.10;0.10;;;;;;;;;;4853289;29;20072;-76
2021/12/17 00:59:47;;;;;;;0.25;0.25;;;;;;;;;;4851200;29;20037;-76
2021/12/17 01:02:15;;;;;;;0.20;0.20;;;;;;;;;;4850691;29;20040;-76
2021/12/17 01:04:43;;;;;;;0.10;0.10;;;;;;;;;;4850965;29;20045;-77
2021/12/17 01:07:10;;;;;;;0.30;0.30;;;;;;;;;;4851149;29;20486;-76
2021/12/17 01:09:36;;;;;;;0.10;0.10;;;;;;;;;;4852215;29;20036;-77
2021/12/17 01:12:23;;;;;;;0.17;0.17;;;;;;;;;;4843861;29;20038;-79
2021/12/17 01:14:50;;;;;;;0.20;0.20;;;;;;;;;;4850582;29;20286;-77
2021/12/17 01:17:17;;;;;;;0.10;0.10;;;;;;;;;;4848743;29;20037;-77
2021/12/17 01:24:55;;;;;;;0.20;0.20;;;;;;;;;;4844756;29;20078;-77
2021/12/17 01:35:38;;;;;;;0.10;0.10;;;;;;;;;;4851183;29;20117;-77
2021/12/17 01:41:13;;;;;;;0.10;0.10;;;;;;;;;;4775508;29;20043;-78
2021/12/17 01:43:46;;;;;;;0.10;0.10;;;;;;;;;;4775647;30;20063;-77
2021/12/17 01:46:19;;;;;;;0.30;0.30;;;;;;;;;;4776295;30;20628;-77
2021/12/17 01:59:59;;;;;;;0.10;0.10;;;;;;;;;;4722585;30;20045;-79
2021/12/17 02:02:26;;;;;;;0.10;0.10;;;;;;;;;;4723914;30;20048;-78
2021/12/17 02:04:52;;;;;;;0.10;0.10;;;;;;;;;;4726591;30;20049;-78
2021/12/17 02:07:18;;;;;;;0.10;0.10;;;;;;;;;;4723719;30;20734;-80
2021/12/17 02:31:31;;;;;;;0.10;0.10;;;;;;;;;;4758148;30;20055;-80
2021/12/17 02:33:59;;;;;;;0.10;0.10;;;;;;;;;;4773099;29;20039;-80
2021/12/17 02:36:28;;;;;;;0.10;0.10;;;;;;;;;;4793915;29;20051;-78
2021/12/17 02:39:14;;;;;;;0.15;0.15;;;;;;;;;;4796176;29;20472;-78
2021/12/17 02:47:09;;;;;;;0.10;0.10;;;;;;;;;;4792079;29;20049;-78
2021/12/17 02:49:35;;;;;;;0.10;0.10;;;;;;;;;;4850923;29;20049;-77
2021/12/17 02:52:03;;;;;;;0.17;0.17;;;;;;;;;;4850887;29;20044;-78
2021/12/17 02:54:30;;;;;;;0.32;0.30;;;;;;;;;;4852193;29;20054;-77
2021/12/17 02:56:56;;;;;;;0.10;0.10;;;;;;;;;;4852170;29;20033;-77
2021/12/17 02:59:22;;;;;;;0.10;0.10;;;;;;;;;;4853131;29;20049;-77
2021/12/17 03:01:49;;;;;;;0.20;0.20;;;;;;;;;;4851509;29;20052;-77
2021/12/17 03:04:15;;;;;;;0.17;0.17;;;;;;;;;;4840854;29;20037;-77
2021/12/17 03:06:42;;;;;;;0.10;0.10;;;;;;;;;;4853516;29;20030;-76
2021/12/17 03:09:09;;;;;;;0.10;0.10;;;;;;;;;;4853294;29;20045;-77
2021/12/17 03:11:35;;;;;;;;;;;;;;;;;;4853847;29;20037;-77
2021/12/17 03:14:01;;;;;;;0.10;0.10;;;;;;;;;;4837783;29;20558;-76
2021/12/17 03:24:04;;;;;;;0.10;0.10;;;;;;;;;;4854126;29;20045;-76
2021/12/17 03:26:31;;;;;;;0.13;0.13;;;;;;;;;;4853351;29;20890;-77
2021/12/17 03:28:59;;;;;;;0.75;0.75;;;;;;;;;;4852951;29;20041;-77
2021/12/17 03:31:25;;;;;;;0.70;0.47;;;;;;;;;;4851441;29;20037;-77
2021/12/17 03:33:54;;;;;;;0.10;0.10;;;;;;;;;;4836215;29;20148;-77
2021/12/17 03:36:20;;;;;;;0.10;0.10;;;;;;;;;;4854786;29;20030;-77
2021/12/17 03:38:48;;;;;;;0.10;0.10;;;;;;;;;;4852826;29;20565;-80
2021/12/17 03:43:40;;;;;;;0.13;0.13;;;;;;;;;;4852777;29;20085;-79
2021/12/17 03:46:06;;;;;;;0.10;0.10;;;;;;;;;;4853104;29;20044;-79
2021/12/17 03:48:37;;;;;;;0.60;0.60;;;;;;;;;;4854157;29;20418;-79
2021/12/17 03:51:04;;;;;;;0.52;0.43;;;;;;;;;;4853776;29;20041;-79
2021/12/17 03:53:30;;;;;;;;;;;;;;;;;;4853286;29;20417;-79
2021/12/17 03:55:56;;;;;;;0.10;0.10;;;;;;;;;;4852543;29;19916;-79
2021/12/17 03:58:22;;;;;;;0.50;0.50;;;;;;;;;;4852617;29;20054;-79
2021/12/17 04:00:48;;;;;;;0.13;0.13;;;;;;;;;;4852454;29;20049;-80
2021/12/17 04:03:14;;;;;;;0.20;0.20;;;;;;;;;;4852937;29;20113;-79
2021/12/17 04:05:41;;;;;;;0.08;0.08;;;;;;;;;;4850148;29;20033;-79
2021/12/17 04:08:07;;;;;;;;;;;;;;;;;;4851649;29;20037;-78
2021/12/17 04:10:41;;;;;;;0.30;0.30;;;;;;;;;;4851448;29;19935;-79
2021/12/17 04:15:55;;;;;;;0.25;0.25;;;;;;;;;;4851315;29;20048;-78
2021/12/17 04:18:22;;;;;;;0.10;0.10;;;;;;;;;;4845361;29;20128;-79
2021/12/17 04:20:48;;;;;;;0.10;0.10;;;;;;;;;;4851435;29;20065;-79
2021/12/17 04:23:14;;;;;;;0.10;0.10;;;;;;;;;;4850854;29;20065;-78
2021/12/17 04:25:40;;;;;;;0.20;0.20;;;;;;;;;;4851931;29;20844;-78
2021/12/17 04:28:06;;;;;;;0.60;0.40;;;;;;;;;;4851947;29;20050;-80
2021/12/17 04:30:32;;;;;;;0.10;0.10;;;;;;;;;;4845570;29;20299;-80
2021/12/17 04:32:59;;;;;;;0.20;0.20;;;;;;;;;;4852635;29;20502;-78
2021/12/17 04:35:25;;;;;;;0.10;0.10;;;;;;;;;;4851752;29;20076;-78
2021/12/17 04:37:51;;;;;;;0.10;0.10;;;;;;;;;;4851179;29;20121;-77
2021/12/17 04:40:20;;;;;;;0.28;0.28;;;;;;;;;;4852004;29;20129;-78
2021/12/17 04:43:15;;;;;;;0.32;0.32;;;;;;;;;;4851722;29;20261;-77
2021/12/17 04:45:50;;;;;;;0.10;0.10;;;;;;;;;;4839609;29;20041;-77
2021/12/17 04:59:14;;;;;;;0.65;0.65;;;;;;;;;;4851777;29;20049;-77
2021/12/17 05:01:40;;;;;;;0.23;0.23;;;;;;;;;;4851624;29;20035;-77
2021/12/17 05:04:06;;;;;;;0.10;0.10;;;;;;;;;;4834503;29;20170;-77
2021/12/17 05:06:32;;;;;;;0.10;0.10;;;;;;;;;;4852344;29;20033;-77
2021/12/17 05:09:07;;;;;;;0.10;0.10;;;;;;;;;;4851524;29;20075;-77
2021/12/17 05:22:10;;;;;;;0.20;0.20;;;;;;;;;;4850941;29;20426;-77
2021/12/17 05:24:36;;;;;;;0.20;0.20;;;;;;;;;;4851878;29;20025;-79
2021/12/17 05:27:02;;;;;;;0.47;0.47;;;;;;;;;;4851483;29;20485;-78
2021/12/17 05:29:28;;;;;;;0.20;0.20;;;;;;;;;;4851697;29;20052;-78
2021/12/17 05:31:54;;;;;;;0.22;0.22;;;;;;;;;;4850802;29;20068;-77
2021/12/17 05:34:20;;;;;;;0.20;0.20;;;;;;;;;;4849331;29;20505;-77
2021/12/17 05:36:47;;;;;;;0.27;0.27;;;;;;;;;;4850894;29;20134;-79
2021/12/17 05:39:13;;;;;;;0.10;0.10;;;;;;;;;;4852283;29;20057;-79
2021/12/17 05:41:39;;;;;;;0.10;0.10;;;;;;;;;;4850619;29;20033;-82
2021/12/17 05:44:05;;;;;;;0.10;0.10;;;;;;;;;;4830920;29;20026;-81
2021/12/17 05:46:49;;;;;;;0.30;0.30;;;;;;;;;;4850833;29;20106;-84
2021/12/17 05:49:22;;;;;;;0.35;0.35;;;;;;;;;;4846518;29;20045;-81
2021/12/17 05:51:49;;;;;;;0.30;0.30;;;;;;;;;;4850591;29;20059;-81
2021/12/17 05:54:15;;;;;;;0.97;0.97;;;;;;;;;;4852552;29;20875;-81
2021/12/17 05:56:42;;;;;;;0.10;0.10;;;;;;;;;;4850618;29;20298;-83
2021/12/17 05:59:08;;;;;;;0.13;0.13;;;;;;;;;;4850120;29;20030;-83
2021/12/17 06:01:34;;;;;;;0.10;0.10;;;;;;;;;;4834486;29;20454;-82
2021/12/17 06:04:01;;;;;;;0.10;0.10;;;;;;;;;;4834108;29;20735;-83
2021/12/17 06:06:30;;;;;;;0.20;0.20;;;;;;;;;;4852188;29;20061;-83
2021/12/17 06:08:56;;;;;;;0.13;0.13;;;;;;;;;;4850574;29;20073;-85
2021/12/17 06:11:22;;;;;;;0.10;0.10;;;;;;;;;;4849326;29;20430;-80
2021/12/17 06:13:48;;;;;;;0.10;0.10;;;;;;;;;;4848101;29;20084;-82
2021/12/17 06:16:14;;;;;;;0.20;0.20;;;;;;;;;;4848633;29;20081;-82
2021/12/17 06:18:40;;;;;;;0.17;0.17;;;;;;;;;;4849765;29;20133;-81
2021/12/17 06:21:06;;;;;;;0.10;0.10;;;;;;;;;;4848993;29;20794;-81
2021/12/17 06:23:32;;;;;;;0.20;0.20;;;;;;;;;;4848821;29;20041;-81
2021/12/17 06:25:58;;;;;;;0.37;0.37;;;;;;;;;;4846534;29;20049;-81
2021/12/17 06:28:24;;;;;;;2.42;0.55;;;;;;;;;;4845919;29;20044;-81
2021/12/17 06:30:50;;;;;;;0.25;0.25;;;;;;;;;;4846222;29;20049;-81
2021/12/17 06:33:17;;;;;;;0.28;0.28;;;;;;;;;;4842660;29;20037;-82
2021/12/17 06:35:43;;;;;;;0.20;0.20;;;;;;;;;;4831071;29;20041;-79
2021/12/17 06:38:09;;;;;;;0.43;0.43;;;;;;;;;;4848213;29;20805;-81
2021/12/17 06:40:35;;;;;;;0.20;0.20;;;;;;;;;;4849172;29;20029;-81
2021/12/17 06:43:01;;;;;;;0.10;0.10;;;;;;;;;;4851533;29;20037;-80
2021/12/17 06:45:46;;;;;;;0.17;0.17;;;;;;;;;;4853263;29;20037;-81
2021/12/17 06:48:12;;;;;;;0.20;0.20;;;;;;;;;;4852884;29;20055;-82
2021/12/17 06:59:09;;;;;;;0.20;0.20;;;;;;;;;;4852732;29;20073;-82
2021/12/17 07:23:15;;;;;;;0.10;0.10;;;;;;;;;;4853148;29;20207;-80
2021/12/17 07:33:41;;;;;;;0.20;0.20;;;;;;;;;;4854156;29;20034;-84
2021/12/17 07:36:13;;;;;;;0.32;0.32;;;;;;;;;;4853620;29;20033;-82
2021/12/17 07:38:48;;;;;;;0.40;0.40;;;;;;;;;;4853412;29;20430;-82
2021/12/17 07:41:14;;;;;;;0.10;0.10;;;;;;;;;;4852257;29;20047;-82
2021/12/17 07:43:51;;;;;;;0.10;0.10;;;;;;;;;;4843293;29;20030;-81
2021/12/17 07:46:17;;;;;;;;;;;;;;;;;;4833722;29;20041;-80
2021/12/17 07:48:43;;;;;;;0.10;0.10;;;;;;;;;;4852549;29;19919;-82
2021/12/17 07:51:11;;;;;;;0.25;0.25;;;;;;;;;;4854051;29;20294;-80
2021/12/17 07:53:37;;;;;;;0.10;0.10;;;;;;;;;;4850452;29;20033;-81
2021/12/17 07:56:04;;;;;;;0.15;0.15;;;;;;;;;;4851502;29;20093;-80
2021/12/17 07:58:31;;;;;;;0.10;0.10;;;;;;;;;;4852377;29;20041;-80
2021/12/17 08:00:57;;;;;;;0.20;0.20;;;;;;;;;;4849213;29;20042;-85
2021/12/17 08:03:23;;;;;;;0.55;0.35;;;;;;;;;;4853700;29;20066;-86
2021/12/17 08:05:50;;;;;;;0.20;0.20;;;;;;;;;;4851792;29;20037;-85
2021/12/17 08:08:16;;;;;;;0.15;0.15;;;;;;;;;;4852153;29;20090;-86
2021/12/17 08:10:43;;;;;;;0.10;0.10;;;;;;;;;;4851764;29;20041;-86
2021/12/17 08:13:16;;;;;;;0.00;0.00;;;;;;;;;;4834374;29;20298;-86
2021/12/17 08:15:51;;;;;;;0.10;0.10;;;;;;;;;;4852615;29;20722;-86
2021/12/17 08:18:43;;;;;;;0.10;0.10;;;;;;;;;;4852734;29;20049;-85
2021/12/17 08:31:26;;;;;;;0.10;0.10;;;;;;;;;;4852207;29;20836;-86
2021/12/17 08:33:52;;;;;;;0.10;0.10;;;;;;;;;;4852075;29;20064;-86
2021/12/17 08:36:19;;;;;;;0.10;0.10;;;;;;;;;;4854053;29;20040;-86
2021/12/17 08:38:45;;;;;;;0.10;0.10;;;;;;;;;;4832172;29;20417;-85
2021/12/17 08:41:12;;;;;;;0.10;0.10;;;;;;;;;;4851749;29;20294;-85
2021/12/17 08:43:38;;;;;;;0.10;0.10;;;;;;;;;;4851950;29;20486;-86
2021/12/17 08:46:04;;;;;;;0.10;0.10;;;;;;;;;;4852177;29;20094;-86
2021/12/17 08:48:30;;;;;;;0.20;0.20;;;;;;;;;;4836746;29;20105;-85
2021/12/17 08:50:57;;;;;;;0.10;0.10;;;;;;;;;;4852094;29;20649;-85
2021/12/17 08:53:23;;;;;;;0.38;0.38;;;;;;;;;;4851780;29;20132;-85
2021/12/17 08:55:49;;;;;;;0.20;0.20;;;;;;;;;;4851909;29;20117;-85
2021/12/17 08:58:15;;;;;;;0.17;0.17;;;;;;;;;;4851506;29;20036;-85
2021/12/17 09:00:42;;;;;;;0.10;0.10;;;;;;;;;;4852509;29;20053;-85
2021/12/17 09:03:09;;;;;;;;;;;;;;;;;;4853680;29;20045;-86
2021/12/17 09:05:37;;;;;;;0.10;0.10;;;;;;;;;;4851972;29;19919;-86
2021/12/17 09:08:04;;;;;;;0.10;0.10;;;;;;;;;;4851506;29;20092;-86
2021/12/17 09:10:30;;;;;;;0.30;0.30;;;;;;;;;;4851561;29;20618;-86
2021/12/17 09:12:56;;;;;;;0.40;0.40;;;;;;;;;;4851576;29;20585;-87
2021/12/17 09:15:22;;;;;;;0.10;0.10;;;;;;;;;;4853129;29;20201;-86
2021/12/17 09:17:48;;;;;;;0.20;0.20;;;;;;;;;;4851129;29;20529;-86
2021/12/17 09:20:14;;;;;;;0.10;0.10;;;;;;;;;;4851323;29;20060;-86
2021/12/17 09:22:40;;;;;;;0.10;0.10;;;;;;;;;;4851251;29;20045;-86
2021/12/17 09:25:07;;;;;;;0.10;0.10;;;;;;;;;;4851005;29;20026;-87
2021/12/17 09:27:34;;;;;;;0.20;0.20;;;;;;;;;;4852538;29;20121;-85
2021/12/17 09:30:00;;;;;;;0.10;0.10;;;;;;;;;;4850345;29;20092;-86
2021/12/17 09:32:26;;;;;;;0.10;0.10;;;;;;;;;;4851200;29;20483;-86
2021/12/17 09:34:52;;;;;;;0.10;0.10;;;;;;;;;;4851098;29;20045;-86
2021/12/17 09:37:18;;;;;;;0.10;0.10;;;;;;;;;;4851254;29;20073;-86
2021/12/17 09:39:44;;;;;;;0.10;0.10;;;;;;;;;;4851319;29;20029;-85
2021/12/17 09:42:11;;;;;;;0.15;0.15;;;;;;;;;;4852913;29;20035;-86
2021/12/17 09:44:37;;;;;;;0.10;0.10;;;;;;;;;;4851010;29;20763;-86
2021/12/17 09:47:03;;;;;;;0.10;0.10;;;;;;;;;;4852222;29;20037;-86
2021/12/17 09:49:29;;;;;;;0.15;0.15;;;;;;;;;;4850699;29;20286;-86
2021/12/17 09:51:56;;;;;;;0.27;0.27;;;;;;;;;;4833913;29;20551;-87
2021/12/17 09:54:22;;;;;;;0.10;0.10;;;;;;;;;;4852824;29;20294;-86
2021/12/17 09:56:48;;;;;;;2.57;0.60;;;;;;;;;;4850886;29;20037;-86
2021/12/17 09:59:15;;;;;;;0.13;0.13;;;;;;;;;;4850739;29;20293;-86
2021/12/17 10:01:42;;;;;;;0.20;0.20;;;;;;;;;;4850837;29;20044;-86
2021/12/17 10:04:28;;;;;;;0.10;0.10;;;;;;;;;;4835168;29;20534;-86
2021/12/17 10:07:14;;;;;;;0.10;0.10;;;;;;;;;;4850401;29;20034;-85
2021/12/17 10:09:45;;;;;;;0.10;0.10;;;;;;;;;;4850533;29;20034;-86
2021/12/17 10:12:11;;;;;;;0.20;0.20;;;;;;;;;;4854353;29;20038;-86
2021/12/17 10:14:37;;;;;;;0.20;0.20;;;;;;;;;;4854789;29;20048;-87
2021/12/17 10:17:07;;;;;;;0.10;0.10;;;;;;;;;;4853329;29;20868;-86
2021/12/17 10:19:46;;;;;;;0.50;0.50;;;;;;;;;;4854155;29;20061;-86
2021/12/17 10:22:13;;;;;;;0.20;0.20;;;;;;;;;;4841193;29;20038;-87
2021/12/17 10:24:39;;;;;;;;;;;;;;;;;;4855437;29;20413;-86
2021/12/17 10:27:21;;;;;;;0.52;0.52;;;;;;;;;;4855083;29;19927;-86
2021/12/17 10:29:48;;;;;;;0.10;0.10;;;;;;;;;;4854091;29;20037;-86
2021/12/17 10:32:19;;;;;;;0.40;0.40;;;;;;;;;;4854218;29;20061;-85
2021/12/17 10:35:05;;;;;;;0.10;0.10;;;;;;;;;;4853887;29;20026;-86
2021/12/17 10:37:39;;;;;;;0.55;0.55;;;;;;;;;;4836776;29;20504;-86
2021/12/17 10:40:16;;;;;;;0.00;0.00;;;;;;;;;;4839717;29;20067;-86
2021/12/17 10:42:50;;;;;;;;;;;;;;;;;;4854757;29;20401;-86
2021/12/17 10:45:24;;;;;;;0.85;0.40;;;;;;;;;;4854278;29;20043;-87
2021/12/17 10:48:02;;;;;;;0.75;0.32;;;;;;;;;;4853702;29;20414;-86
2021/12/17 10:50:28;;;;;;;0.10;0.10;;;;;;;;;;4853535;29;20037;-86
2021/12/17 10:52:57;;;;;;;0.85;0.85;;;;;;;;;;4853487;29;20037;-86
2021/12/17 10:55:26;;;;;;;0.57;0.57;;;;;;;;;;4853727;29;20029;-87
2021/12/17 10:57:58;;;;;;;0.40;0.40;;;;;;;;;;4853515;29;20446;-87
2021/12/17 11:00:24;;;;;;;0.40;0.32;;;;;;;;;;4855174;29;20030;-87
2021/12/17 11:02:51;;;;;;;0.30;0.30;;;;;;;;;;4853683;29;20041;-86
2021/12/17 11:05:18;;;;;;;0.63;0.63;;;;;;;;;;4853510;29;20081;-86
2021/12/17 11:07:48;;;;;;;0.50;0.50;;;;;;;;;;4853548;29;20173;-87
2021/12/17 11:10:16;;;;;;;0.10;0.10;;;;;;;;;;4853357;29;20037;-85
2021/12/17 11:12:42;;;;;;;1.17;0.40;;;;;;;;;;4854032;29;20492;-86
2021/12/17 11:15:14;;;;;;;0.10;0.10;;;;;;;;;;4851349;29;20033;-86
2021/12/17 11:17:42;;;;;;;0.35;0.35;;;;;;;;;;4853362;29;20038;-86
2021/12/17 11:20:10;;;;;;;1.75;0.30;;;;;;;;;;4837375;29;20080;-86
2021/12/17 11:22:37;;;;;;;0.13;0.13;;;;;;;;;;4853157;29;20033;-86
2021/12/17 11:25:03;;;;;;;0.20;0.20;;;;;;;;;;4853263;29;20113;-86
2021/12/17 11:27:30;;;;;;;0.17;0.17;;;;;;;;;;4855057;29;20109;-86
2021/12/17 11:29:56;;;;;;;0.25;0.25;;;;;;;;;;4851922;29;20074;-86
2021/12/17 11:32:23;;;;;;;0.20;0.20;;;;;;;;;;4853069;29;20108;-86
2021/12/17 11:34:49;;;;;;;0.40;0.40;;;;;;;;;;4853145;29;20988;-87
2021/12/17 11:37:15;;;;;;;1.40;1.13;;;;;;;;;;4853027;29;20077;-86
2021/12/17 11:39:44;;;;;;;0.10;0.10;;;;;;;;;;4853571;29;20053;-86
2021/12/17 11:42:18;;;;;;;0.20;0.20;;;;;;;;;;4852730;29;20029;-86
2021/12/17 11:44:53;;;;;;;0.10;0.10;;;;;;;;;;4852981;29;20497;-87
2021/12/17 11:47:19;;;;;;;0.20;0.20;;;;;;;;;;4851179;29;20030;-85
2021/12/17 11:49:49;;;;;;;0.30;0.30;;;;;;;;;;4852791;29;20041;-87
2021/12/17 11:52:15;;;;;;;0.10;0.10;;;;;;;;;;4836941;29;20078;-87
2021/12/17 11:54:42;;;;;;;1.07;0.87;;;;;;;;;;4848638;29;20387;-88
2021/12/17 11:57:08;;;;;;;0.10;0.10;;;;;;;;;;4840531;29;20300;-88
2021/12/17 11:59:35;;;;;;;0.20;0.20;;;;;;;;;;4849871;29;20097;-88
2021/12/17 12:02:31;;;;;;;0.10;0.10;;;;;;;;;;4836748;29;20041;-87
2021/12/17 12:04:58;;;;;;;0.10;0.10;;;;;;;;;;4832740;29;20149;-88
2021/12/17 12:07:24;;;;;;;;;;;;;;;;;;4851625;29;20033;-88
2021/12/17 12:09:57;;;;;;;0.10;0.10;;;;;;;;;;4852664;29;20102;-88
2021/12/17 12:12:24;;;;;;;0.32;0.32;;;;;;;;;;4846906;29;20361;-88
2021/12/17 12:14:50;;;;;;;0.63;0.63;;;;;;;;;;4836043;29;20049;-88
2021/12/17 12:17:36;;;;;;;0.10;0.10;;;;;;;;;;4842546;29;20037;-88
2021/12/17 12:20:02;;;;;;;0.13;0.13;;;;;;;;;;4844449;29;20077;-87
2021/12/17 12:22:31;;;;;;;0.10;0.10;;;;;;;;;;4851068;29;20033;-86
2021/12/17 12:25:15;;;;;;;0.20;0.20;;;;;;;;;;4851604;29;20477;-88
2021/12/17 12:27:46;;;;;;;0.10;0.10;;;;;;;;;;4850976;29;20064;-87
2021/12/17 12:30:13;;;;;;;0.30;0.30;;;;;;;;;;4852335;29;20037;-87
2021/12/17 12:32:59;;;;;;;0.20;0.20;;;;;;;;;;4850312;29;20523;-87
2021/12/17 12:35:25;;;;;;;0.10;0.10;;;;;;;;;;4850771;29;20034;-89
2021/12/17 12:38:20;;;;;;;0.20;0.20;;;;;;;;;;4850698;29;20029;-87
2021/12/17 12:40:56;;;;;;;0.40;0.40;;;;;;;;;;4834794;29;20053;-87
2021/12/17 12:43:26;;;;;;;0.10;0.10;;;;;;;;;;4850889;29;20071;-88
2021/12/17 12:45:52;;;;;;;0.10;0.10;;;;;;;;;;4851936;29;20039;-88
2021/12/17 12:48:48;;;;;;;0.10;0.10;;;;;;;;;;4849102;29;20029;-87
2021/12/17 12:51:14;;;;;;;0.22;0.22;;;;;;;;;;4827965;29;20057;-87
2021/12/17 12:53:45;;;;;;;0.10;0.10;;;;;;;;;;4850646;29;20058;-88
2021/12/17 12:56:16;;;;;;;0.20;0.20;;;;;;;;;;4850245;29;20431;-87
2021/12/17 12:58:46;;;;;;;0.25;0.25;;;;;;;;;;4836181;29;20121;-88
2021/12/17 13:01:15;;;;;;;0.30;0.30;;;;;;;;;;4852047;29;20068;-88
2021/12/17 13:03:41;;;;;;;0.20;0.20;;;;;;;;;;4852460;29;20057;-87
2021/12/17 13:06:15;;;;;;;0.10;0.10;;;;;;;;;;4851410;29;20029;-87
2021/12/17 13:08:41;;;;;;;0.40;0.40;;;;;;;;;;4850619;29;20565;-88
2021/12/17 13:11:07;;;;;;;0.40;0.40;;;;;;;;;;4846990;29;20049;-89
2021/12/17 13:13:50;;;;;;;0.10;0.10;;;;;;;;;;4840333;29;20065;-89
2021/12/17 13:16:22;;;;;;;0.60;0.40;;;;;;;;;;4842242;29;20053;-89
2021/12/17 13:21:44;;;;;;;0.20;0.20;;;;;;;;;;4850834;29;20182;-89
2021/12/17 13:24:19;;;;;;;0.10;0.10;;;;;;;;;;4852932;29;20037;-89
2021/12/17 13:26:52;;;;;;;0.20;0.20;;;;;;;;;;4846138;29;20033;-88
2021/12/17 13:29:33;;;;;;;0.17;0.17;;;;;;;;;;4836022;29;20145;-88
2021/12/17 13:32:01;;;;;;;0.10;0.10;;;;;;;;;;4847122;29;20383;-88
2021/12/17 13:34:29;;;;;;;0.10;0.10;;;;;;;;;;4834875;29;20133;-89
2021/12/17 13:37:07;;;;;;;0.52;0.52;;;;;;;;;;4834888;29;20109;-89
2021/12/17 13:39:51;;;;;;;0.10;0.10;;;;;;;;;;4835712;29;20046;-89
2021/12/17 13:42:17;;;;;;;1.10;0.47;;;;;;;;;;4852139;29;20056;-89
2021/12/17 13:44:44;;;;;;;0.10;0.10;;;;;;;;;;4828670;29;20041;-88
2021/12/17 13:47:18;;;;;;;0.10;0.10;;;;;;;;;;4844128;29;20038;-88
2021/12/17 13:49:49;;;;;;;0.20;0.20;;;;;;;;;;4855257;29;20031;-88
2021/12/17 13:52:16;;;;;;;0.10;0.10;;;;;;;;;;4854142;29;20116;-88
2021/12/17 13:54:42;;;;;;;;;;;;;;;;;;4856396;29;20029;-88
2021/12/17 13:57:11;;;;;;;0.10;0.10;;;;;;;;;;4856890;29;19912;-88
2021/12/17 13:59:37;;;;;;;0.20;0.20;;;;;;;;;;4850751;29;20183;-87
2021/12/17 14:02:07;;;;;;;0.10;0.10;;;;;;;;;;4848737;29;20033;-88
2021/12/17 14:04:33;;;;;;;0.22;0.22;;;;;;;;;;4850766;29;20030;-88
2021/12/17 14:07:09;;;;;;;0.35;0.32;;;;;;;;;;4852776;29;20038;-88
2021/12/17 14:09:36;;;;;;;0.10;0.10;;;;;;;;;;4838622;29;20051;-88
2021/12/17 14:12:26;;;;;;;0.10;0.10;;;;;;;;;;4849058;29;20118;-88
2021/12/17 14:15:04;;;;;;;0.30;0.30;;;;;;;;;;4843049;29;20026;-87
2021/12/17 14:17:37;;;;;;;0.10;0.10;;;;;;;;;;4844354;29;20116;-88
2021/12/17 14:20:06;;;;;;;0.30;0.30;;;;;;;;;;4833080;29;20606;-88
2021/12/17 14:22:37;;;;;;;0.10;0.10;;;;;;;;;;4853375;29;20037;-88
2021/12/17 14:25:22;;;;;;;0.10;0.10;;;;;;;;;;4850873;29;20085;-89
2021/12/17 14:27:48;;;;;;;0.10;0.10;;;;;;;;;;4842688;29;20038;-88
2021/12/17 14:30:14;;;;;;;0.22;0.22;;;;;;;;;;4838198;29;20066;-88
2021/12/17 14:32:44;;;;;;;0.20;0.20;;;;;;;;;;4851437;29;20041;-87
2021/12/17 14:35:10;;;;;;;0.10;0.10;;;;;;;;;;4840219;29;20045;-86
2021/12/17 14:37:56;;;;;;;0.10;0.10;;;;;;;;;;4845285;29;20029;-88
2021/12/17 14:40:51;;;;;;;0.10;0.10;;;;;;;;;;4849966;29;20074;-88
2021/12/17 14:43:18;;;;;;;0.75;0.40;;;;;;;;;;4837884;29;20830;-88
2021/12/17 14:45:45;;;;;;;;;;;;;;;;;;4822464;29;20510;-88
2021/12/17 14:48:11;;;;;;;;;;;;;;;;;;4843218;29;20269;-88
2021/12/17 15:02:12;;;;;;;0.28;0.28;;;;;;;;;;4841739;29;20467;-88
2021/12/17 15:04:38;;;;;;;0.30;0.30;;;;;;;;;;4838041;29;20034;-87
2021/12/17 15:07:04;;;;;;;0.52;0.30;;;;;;;;;;4836666;29;20037;-86
2021/12/17 15:09:35;;;;;;;0.25;0.25;;;;;;;;;;4838204;29;20018;-88
2021/12/17 15:12:12;;;;;;;0.10;0.10;;;;;;;;;;4839322;29;20210;-87
2021/12/17 15:14:38;;;;;;;0.20;0.20;;;;;;;;;;4844269;29;20045;-87
2021/12/17 15:17:04;;;;;;;1.50;0.30;;;;;;;;;;4847298;29;20040;-87
2021/12/17 15:19:30;;;;;;;0.10;0.10;;;;;;;;;;4853414;29;20093;-87
2021/12/17 15:21:56;;;;;;;0.20;0.20;;;;;;;;;;4852639;29;20034;-89
2021/12/17 15:24:22;;;;;;;0.20;0.20;;;;;;;;;;4853206;29;20658;-87
2021/12/17 15:26:49;;;;;;;0.57;0.38;;;;;;;;;;4833806;29;20029;-86
2021/12/17 15:29:15;;;;;;;0.10;0.10;;;;;;;;;;4851692;29;20126;-85
2021/12/17 15:31:41;;;;;;;0.17;0.17;;;;;;;;;;4837415;29;20080;-85
2021/12/17 15:34:07;;;;;;;0.10;0.10;;;;;;;;;;4835125;29;20214;-86
2021/12/17 15:36:33;;;;;;;0.20;0.20;;;;;;;;;;4845752;29;20130;-87
2021/12/17 15:38:59;;;;;;;0.10;0.10;;;;;;;;;;4852147;29;20037;-84
2021/12/17 15:41:25;;;;;;;0.10;0.10;;;;;;;;;;4837212;29;20048;-84
2021/12/17 15:43:52;;;;;;;0.10;0.10;;;;;;;;;;4851471;29;20081;-87
2021/12/17 15:46:18;;;;;;;;;;;;;;;;;;4852303;29;20527;-85
2021/12/17 15:48:45;;;;;;;0.30;0.30;;;;;;;;;;4853778;29;20243;-85
2021/12/17 15:51:11;;;;;;;0.10;0.10;;;;;;;;;;4852456;29;20045;-84
2021/12/17 15:53:37;;;;;;;1.45;0.80;;;;;;;;;;4851584;29;20038;-86
2021/12/17 15:56:03;;;;;;;0.30;0.30;;;;;;;;;;4851618;29;20512;-85
2021/12/17 15:58:29;;;;;;;0.25;0.25;;;;;;;;;;4851778;29;20029;-87
2021/12/17 16:00:56;;;;;;;0.10;0.10;;;;;;;;;;4852664;29;20038;-84
2021/12/17 16:03:30;;;;;;;0.40;0.40;;;;;;;;;;4853769;29;20036;-86
2021/12/17 16:05:57;;;;;;;0.10;0.10;;;;;;;;;;4851581;29;20120;-86
2021/12/17 16:08:23;;;;;;;0.20;0.20;;;;;;;;;;4850421;29;20041;-84
2021/12/17 16:21:47;;;;;;;1.35;0.50;;;;;;;;;;4853275;29;20047;-84
2021/12/17 16:24:13;;;;;;;0.10;0.10;;;;;;;;;;4852204;29;20029;-85
2021/12/17 16:26:39;;;;;;;0.80;0.25;;;;;;;;;;4836683;29;20041;-84
2021/12/17 16:29:08;;;;;;;0.13;0.13;;;;;;;;;;4850878;29;20033;-85
2021/12/17 16:31:34;;;;;;;0.15;0.15;;;;;;;;;;4850341;29;20132;-87
2021/12/17 16:34:01;;;;;;;0.73;0.50;;;;;;;;;;4836407;29;20074;-87
2021/12/17 16:36:28;;;;;;;4.78;0.65;;;;;;;;;;4853861;29;20041;-86
2021/12/17 16:38:55;;;;;;;0.40;0.40;;;;;;;;;;4850954;29;20029;-86
2021/12/17 16:41:23;;;;;;;0.10;0.10;;;;;;;;;;4850753;29;20044;-86
2021/12/17 16:43:52;;;;;;;2.15;0.52;;;;;;;;;;4850784;29;20758;-87
2021/12/17 16:48:45;;;;;;;0.10;0.10;;;;;;;;;;4852782;29;20033;-87
2021/12/17 16:51:13;;;;;;;4.57;0.90;;;;;;;;;;4851501;29;20077;-87
2021/12/17 16:53:39;;;;;;;0.70;0.57;;;;;;;;;;4850924;29;20128;-87
2021/12/17 16:56:05;;;;;;;0.20;0.20;;;;;;;;;;4850801;29;20163;-87
2021/12/17 16:58:32;;;;;;;0.10;0.10;;;;;;;;;;4850721;29;20025;-86
2021/12/17 17:00:58;;;;;;;0.10;0.10;;;;;;;;;;4851598;29;20022;-86
2021/12/17 17:03:25;;;;;;;0.70;0.63;;;;;;;;;;4852057;29;20041;-86
2021/12/17 17:05:51;;;;;;;1.00;0.50;;;;;;;;;;4836221;29;20044;-86
2021/12/17 17:08:17;;;;;;;0.63;0.63;;;;;;;;;;4850675;29;20196;-87
2021/12/17 17:10:51;;;;;;;0.15;0.15;;;;;;;;;;4850579;29;20033;-87
2021/12/17 17:13:17;;;;;;;0.10;0.10;;;;;;;;;;4850709;29;20038;-86
2021/12/17 17:15:43;;;;;;;0.32;0.28;;;;;;;;;;4852630;29;20030;-87
2021/12/17 17:18:09;;;;;;;0.30;0.30;;;;;;;;;;4851106;29;20049;-88
2021/12/17 17:20:36;;;;;;;0.30;0.30;;;;;;;;;;4836027;29;20173;-88
2021/12/17 17:23:02;;;;;;;0.28;0.28;;;;;;;;;;4850298;29;20517;-87
2021/12/17 17:25:29;;;;;;;0.52;0.52;;;;;;;;;;4836011;29;20033;-86
2021/12/17 17:27:55;;;;;;;0.30;0.30;;;;;;;;;;4834256;29;20025;-87
2021/12/17 17:30:22;;;;;;;1.27;1.25;;;;;;;;;;4852197;29;20044;-86
2021/12/17 17:32:48;;;;;;;0.50;0.50;;;;;;;;;;4851881;29;20086;-86
2021/12/17 17:35:15;;;;;;;0.10;0.10;;;;;;;;;;4849883;29;20046;-86
2021/12/17 17:37:41;;;;;;;0.35;0.35;;;;;;;;;;4849971;29;20038;-87
2021/12/17 17:40:08;;;;;;;0.30;0.30;;;;;;;;;;4849831;29;20065;-87
2021/12/17 17:42:34;;;;;;;0.20;0.20;;;;;;;;;;4847128;29;20171;-86
2021/12/17 17:45:00;;;;;;;0.40;0.40;;;;;;;;;;4838172;29;20033;-86
2021/12/17 17:47:26;;;;;;;0.10;0.10;;;;;;;;;;4838085;29;20037;-87
2021/12/17 17:49:54;;;;;;;0.10;0.10;;;;;;;;;;4840947;29;20109;-87
2021/12/17 17:52:20;;;;;;;0.10;0.10;;;;;;;;;;4837806;29;20042;-87
2021/12/17 17:54:46;;;;;;;0.45;0.45;;;;;;;;;;4837261;29;20505;-87
2021/12/17 17:57:13;;;;;;;0.30;0.30;;;;;;;;;;4837811;29;20042;-86
2021/12/17 17:59:42;;;;;;;0.10;0.10;;;;;;;;;;4838166;29;20037;-85
2021/12/17 18:02:09;;;;;;;0.10;0.10;;;;;;;;;;4835881;29;20034;-87
2021/12/17 18:04:35;;;;;;;0.10;0.10;;;;;;;;;;4836091;29;20026;-86
2021/12/17 18:07:03;;;;;;;0.15;0.15;;;;;;;;;;4837289;29;20033;-86
2021/12/17 18:09:29;;;;;;;0.40;0.40;;;;;;;;;;4842267;29;20033;-85
2021/12/17 18:11:55;;;;;;;0.10;0.10;;;;;;;;;;4840616;29;20049;-86
2021/12/17 18:14:21;;;;;;;0.10;0.10;;;;;;;;;;4837556;29;20110;-85